Time;durP1;ratioP1;P1;durP2;ratioP2;P2;SDS_P1;SDS_P2;PMS_P1;PMS_P2;Temp;Humidity;BMP_temperature;BMP_pressure;BME280_temperature;BME280_humidity;BME280_pressure;Samples;Min_cycle;Max_cycle;Signal;HPM_P1;HPM_P2
2022/10/15 00:00:50;;;;;;;10.77;4.85;;;;;;;15.59;53.53;101631.31;5082856;27;20784;-61
2022/10/15 00:05:41;;;;;;;10.80;4.82;;;;;;;15.60;53.38;101639.16;5085505;27;20400;-61
2022/10/15 00:08:09;;;;;;;12.13;4.88;;;;;;;15.52;53.66;101649.06;5046760;28;20397;-61
2022/10/15 00:10:35;;;;;;;9.98;4.70;;;;;;;15.43;54.18;101643.81;5046542;28;20382;-61
2022/10/15 00:17:19;;;;;;;12.40;4.75;;;;;;;15.45;54.00;101638.28;5087678;27;20411;-61
2022/10/15 00:19:45;;;;;;;9.23;4.57;;;;;;;15.51;53.74;101648.25;5046433;28;20401;-61
2022/10/15 00:25:46;;;;;;;11.38;4.75;;;;;;;15.45;54.12;101648.97;5082223;27;20398;-61
2022/10/15 00:28:12;;;;;;;11.07;5.07;;;;;;;15.46;54.08;101651.44;5027066;28;20403;-60
2022/10/15 00:30:37;;;;;;;11.17;4.83;;;;;;;15.50;53.94;101641.22;5026873;28;20410;-60
2022/10/15 00:34:22;;;;;;;10.32;4.90;;;;;;;15.47;54.09;101647.78;5091349;27;20400;-61
2022/10/15 00:36:49;;;;;;;9.60;4.97;;;;;;;15.47;54.05;101638.94;5046690;28;20401;-61
2022/10/15 00:41:47;;;;;;;8.45;4.65;;;;;;;15.49;54.02;101642.25;5086115;27;20914;-61
2022/10/15 00:44:25;;;;;;;13.80;5.50;;;;;;;15.39;54.35;101636.31;5044703;28;20398;-61
2022/10/15 00:46:58;;;;;;;12.77;4.90;;;;;;;15.49;54.31;101635.06;5038450;28;20478;-61
2022/10/15 00:49:29;;;;;;;13.80;4.82;;;;;;;15.48;54.25;101637.91;5046238;28;20386;-61
2022/10/15 00:51:59;;;;;;;11.13;4.65;;;;;;;15.45;54.24;101633.78;5047065;28;20381;-61
2022/10/15 00:55:26;;;;;;;10.70;4.90;;;;;;;15.48;54.15;101638.75;5091159;27;20399;-62
2022/10/15 00:57:52;;;;;;;11.07;4.57;;;;;;;15.49;54.15;101644.94;5035304;28;20527;-61
2022/10/15 01:00:18;;;;;;;10.43;4.73;;;;;;;15.42;54.42;101633.31;5046896;28;20385;-62
2022/10/15 01:04:52;;;;;;;8.90;4.63;;;;;;;15.35;54.45;101638.53;5091765;27;20414;-62
2022/10/15 01:07:18;;;;;;;11.57;4.77;;;;;;;15.31;54.95;101641.75;5046392;28;20402;-61
2022/10/15 01:11:53;;;;;;;12.20;4.97;;;;;;;15.41;54.80;101640.50;5056984;28;20418;-61
2022/10/15 01:14:43;;;;;;;10.00;4.80;;;;;;;15.38;54.81;101643.50;5026180;28;20418;-61
2022/10/15 01:17:49;;;;;;;9.98;5.10;;;;;;;15.39;54.80;101641.66;5084693;27;20411;-62
2022/10/15 01:20:43;;;;;;;9.37;4.70;;;;;;;15.46;54.73;101637.25;5046288;28;20405;-61
2022/10/15 01:24:50;;;;;;;9.80;4.70;;;;;;;15.34;54.96;101633.34;5086591;27;20404;-61
2022/10/15 01:27:24;;;;;;;10.15;4.60;;;;;;;15.33;55.14;101639.72;5032072;28;20467;-61
2022/10/15 01:30:15;;;;;;;9.50;5.07;;;;;;;15.32;55.17;101646.06;5031094;28;20390;-61
2022/10/15 01:33:33;;;;;;;12.02;4.72;;;;;;;15.36;55.15;101645.53;5077330;27;20433;-60
2022/10/15 01:36:07;;;;;;;10.15;4.68;;;;;;;15.34;55.18;101644.03;5064156;28;20762;-66
2022/10/15 01:38:41;;;;;;;11.18;5.07;;;;;;;15.25;55.36;101638.78;5032852;28;20378;-60
2022/10/15 01:41:43;;;;;;;9.45;4.60;;;;;;;15.29;55.27;101634.72;5046777;28;20392;-61
2022/10/15 01:44:24;;;;;;;11.02;4.68;;;;;;;15.32;55.08;101646.06;5049527;28;20416;-61
2022/10/15 01:51:00;;;;;;;9.60;4.47;;;;;;;15.26;55.30;101644.94;5078166;27;20401;-61
2022/10/15 01:55:13;;;;;;;9.73;4.70;;;;;;;15.26;55.17;101645.75;5078869;27;20408;-60
2022/10/15 01:57:41;;;;;;;10.00;4.68;;;;;;;15.31;55.15;101660.44;5026675;28;20979;-61
2022/10/15 02:00:07;;;;;;;8.83;4.40;;;;;;;15.35;54.98;101656.41;5026751;28;20441;-60
2022/10/15 02:02:33;;;;;;;10.63;4.28;;;;;;;15.30;55.15;101651.56;5026220;28;20390;-61
2022/10/15 02:04:58;;;;;;;11.07;4.23;;;;;;;15.36;54.98;101650.03;5026808;28;20384;-61
2022/10/15 02:09:34;;;;;;;7.20;4.00;;;;;;;15.34;55.00;101658.25;5081964;27;20405;-61
2022/10/15 02:12:56;;;;;;;13.20;4.47;;;;;;;15.20;55.15;101651.00;5066574;27;20404;-62
2022/10/15 02:15:48;;;;;;;9.52;3.97;;;;;;;15.37;54.76;101655.19;5081730;27;20408;-60
2022/10/15 02:18:39;;;;;;;8.63;4.35;;;;;;;15.38;54.61;101656.06;5036672;28;20759;-61
2022/10/15 02:21:30;;;;;;;9.82;3.90;;;;;;;15.35;54.53;101653.72;5031805;28;20811;-61
2022/10/15 02:24:14;;;;;;;9.52;4.03;;;;;;;15.23;55.06;101650.63;5044032;28;20949;-61
2022/10/15 02:26:41;;;;;;;8.60;4.13;;;;;;;15.22;54.94;101652.47;5026448;28;20445;-61
2022/10/15 02:31:09;;;;;;;9.02;4.07;;;;;;;15.19;55.06;101662.69;5061460;27;20408;-62
2022/10/15 02:33:36;;;;;;;8.43;3.97;;;;;;;15.31;54.83;101665.78;5026927;28;20399;-61
2022/10/15 02:36:02;;;;;;;9.33;4.40;;;;;;;15.34;54.54;101670.75;5011248;28;20405;-61
2022/10/15 02:38:31;;;;;;;8.88;3.75;;;;;;;15.32;54.68;101668.25;5014249;28;20387;-61
2022/10/15 02:40:59;;;;;;;8.48;3.60;;;;;;;15.22;54.79;101671.16;5026913;28;20417;-62
2022/10/15 02:43:24;;;;;;;8.85;3.67;;;;;;;15.13;54.77;101668.75;5007110;28;20380;-61
2022/10/15 02:45:50;;;;;;;8.50;4.10;;;;;;;15.08;55.08;101663.91;5018744;28;20808;-61
2022/10/15 02:48:16;;;;;;;9.10;3.97;;;;;;;15.04;55.06;101655.44;5008309;28;20417;-60
2022/10/15 02:50:41;;;;;;;8.80;3.38;;;;;;;15.05;55.03;101669.59;5016849;28;20458;-61
2022/10/15 02:54:57;;;;;;;9.93;3.47;;;;;;;15.02;54.94;101672.66;5076661;27;20397;-60
2022/10/15 02:57:23;;;;;;;7.93;3.70;;;;;;;15.08;55.17;101669.25;5026790;28;20905;-60
2022/10/15 02:59:48;;;;;;;8.13;3.67;;;;;;;15.04;54.84;101675.97;5026699;28;20383;-61
2022/10/15 03:02:14;;;;;;;8.90;3.70;;;;;;;14.98;54.88;101665.97;5028242;28;20399;-61
2022/10/15 03:04:39;;;;;;;7.93;3.50;;;;;;;14.96;55.16;101668.00;5026806;28;20893;-62
2022/10/15 03:07:25;;;;;;;7.95;3.47;;;;;;;15.00;55.18;101669.28;5081703;27;20402;-62
2022/10/15 03:09:51;;;;;;;9.27;3.43;;;;;;;14.93;55.28;101674.53;5017980;28;20419;-62
2022/10/15 03:12:16;;;;;;;7.60;3.47;;;;;;;14.96;55.32;101684.84;5007211;28;20970;-61
2022/10/15 03:14:42;;;;;;;9.97;3.40;;;;;;;15.01;55.13;101676.31;5012243;28;20395;-63
2022/10/15 03:17:07;;;;;;;8.25;3.00;;;;;;;14.98;55.05;101671.31;5013280;28;20430;-62
2022/10/15 03:19:33;;;;;;;8.03;3.30;;;;;;;14.95;55.09;101693.88;5019119;28;20388;-61
2022/10/15 03:22:45;;;;;;;6.90;3.20;;;;;;;14.85;55.30;101678.03;5078891;27;20405;-61
2022/10/15 03:25:11;;;;;;;7.77;3.40;;;;;;;14.87;55.40;101677.88;5026723;28;20408;-60
2022/10/15 03:27:36;;;;;;;6.33;2.90;;;;;;;14.90;55.20;101682.88;5026929;28;20545;-61
2022/10/15 03:30:02;;;;;;;5.82;3.15;;;;;;;14.81;55.65;101690.09;5026353;28;20490;-61
2022/10/15 03:32:27;;;;;;;8.75;3.28;;;;;;;14.73;55.77;101684.81;5026656;28;20878;-61
2022/10/15 03:34:53;;;;;;;7.33;3.13;;;;;;;14.78;55.71;101690.41;5026483;28;20380;-61
2022/10/15 03:37:18;;;;;;;6.60;2.90;;;;;;;14.71;55.43;101689.44;5026230;28;20441;-62
2022/10/15 03:39:44;;;;;;;6.73;3.00;;;;;;;14.72;55.58;101688.47;5026516;28;20392;-61
2022/10/15 03:42:09;;;;;;;8.10;3.08;;;;;;;14.72;55.30;101683.13;5026549;28;20505;-60
2022/10/15 03:44:35;;;;;;;8.23;3.67;;;;;;;14.72;55.56;101681.28;5026377;28;20395;-61
2022/10/15 03:47:00;;;;;;;7.00;3.20;;;;;;;14.71;55.23;101681.44;5026504;28;20383;-61
2022/10/15 03:49:26;;;;;;;5.37;2.90;;;;;;;14.66;55.50;101679.31;5026528;28;20426;-61
2022/10/15 03:53:43;;;;;;;8.63;2.63;;;;;;;14.70;55.43;101688.63;5083399;27;20411;-61
2022/10/15 03:58:53;;;;;;;5.47;2.85;;;;;;;14.61;55.70;101687.00;5014609;28;20445;-60
2022/10/15 04:01:18;;;;;;;6.03;2.53;;;;;;;14.54;55.72;101688.66;5026129;28;20766;-61
2022/10/15 04:04:39;;;;;;;7.03;3.00;;;;;;;14.53;55.80;101689.66;5082362;27;20409;-61
2022/10/15 04:07:05;;;;;;;6.70;2.80;;;;;;;14.52;55.86;101686.16;5040299;28;20924;-60
2022/10/15 04:12:15;;;;;;;7.45;2.80;;;;;;;14.49;55.67;101686.50;5083051;27;20409;-61
2022/10/15 04:14:41;;;;;;;8.23;3.30;;;;;;;14.49;55.72;101685.69;5026606;28;20422;-62
2022/10/15 04:17:06;;;;;;;4.87;2.40;;;;;;;14.47;55.50;101690.34;5040648;28;20383;-60
2022/10/15 04:20:25;;;;;;;8.10;3.17;;;;;;;14.41;55.71;101699.06;5064340;27;20409;-62
2022/10/15 04:22:51;;;;;;;7.40;2.72;;;;;;;14.38;55.82;101694.06;5046769;28;20409;-62
2022/10/15 04:25:16;;;;;;;4.27;2.40;;;;;;;14.38;55.74;101700.22;5032670;28;20454;-61
2022/10/15 04:27:42;;;;;;;5.82;2.40;;;;;;;14.38;55.92;101694.88;5046740;28;20382;-61
2022/10/15 04:30:29;;;;;;;7.25;2.67;;;;;;;14.37;55.54;101695.03;5065521;27;20407;-61
2022/10/15 04:32:54;;;;;;;5.80;2.30;;;;;;;14.35;55.42;101708.59;5046894;28;20393;-61
2022/10/15 04:35:20;;;;;;;6.73;2.40;;;;;;;14.23;55.78;101702.75;5036705;28;20792;-61
2022/10/15 04:37:45;;;;;;;7.78;2.67;;;;;;;14.22;55.72;101705.59;5016425;28;20430;-62
2022/10/15 04:40:12;;;;;;;6.43;2.80;;;;;;;14.24;55.68;101709.78;5016951;28;20886;-62
2022/10/15 04:42:38;;;;;;;8.15;3.08;;;;;;;14.14;55.78;101701.09;5015468;28;20399;-62
2022/10/15 04:45:05;;;;;;;8.05;2.67;;;;;;;14.04;55.74;101700.44;5016639;28;21097;-61
2022/10/15 04:47:30;;;;;;;6.00;2.53;;;;;;;14.01;55.82;101717.63;5007655;28;20408;-61
2022/10/15 04:50:17;;;;;;;4.80;2.40;;;;;;;14.02;55.75;101710.44;5062217;27;20911;-60
2022/10/15 04:52:42;;;;;;;6.60;2.37;;;;;;;13.99;56.05;101713.44;5024222;28;20403;-63
2022/10/15 04:55:09;;;;;;;5.87;2.30;;;;;;;14.11;55.63;101718.25;5022556;28;20505;-63
2022/10/15 04:57:34;;;;;;;8.82;2.83;;;;;;;14.08;55.76;101720.44;5022662;28;20387;-63
2022/10/15 05:00:00;;;;;;;7.87;2.93;;;;;;;14.11;55.52;101726.25;5022810;28;20390;-61
2022/10/15 05:02:26;;;;;;;5.70;2.60;;;;;;;14.10;55.34;101721.94;5023362;28;20387;-61
2022/10/15 05:04:51;;;;;;;8.73;2.70;;;;;;;14.12;55.29;101719.94;5022578;28;20414;-63
2022/10/15 05:07:16;;;;;;;7.67;2.70;;;;;;;14.09;55.48;101724.78;5022994;28;20494;-60
2022/10/15 05:09:42;;;;;;;5.17;2.57;;;;;;;14.05;55.17;101720.78;5021890;28;20415;-61
2022/10/15 05:12:07;;;;;;;6.23;2.63;;;;;;;14.00;55.46;101731.13;5023942;28;20431;-62
2022/10/15 05:14:34;;;;;;;5.20;2.37;;;;;;;14.00;55.01;101737.28;5024276;28;20821;-61
2022/10/15 05:17:00;;;;;;;6.03;2.35;;;;;;;14.03;54.87;101736.94;5024425;28;20431;-63
2022/10/15 05:19:25;;;;;;;6.07;2.50;;;;;;;14.09;54.88;101730.09;5022174;28;20827;-61
2022/10/15 05:23:21;;;;;;;7.97;2.95;;;;;;;14.11;54.35;101736.09;5079809;27;20405;-61
2022/10/15 05:25:47;;;;;;;8.18;2.67;;;;;;;14.06;54.60;101731.28;5058310;28;20400;-62
2022/10/15 05:28:12;;;;;;;7.27;3.00;;;;;;;14.15;54.29;101740.09;5061914;28;20431;-62
2022/10/15 05:30:37;;;;;;;6.97;2.65;;;;;;;14.26;53.93;101739.75;5062196;28;20387;-61
2022/10/15 05:33:03;;;;;;;7.13;2.73;;;;;;;14.43;53.28;101755.75;5063347;28;20396;-60
2022/10/15 05:35:28;;;;;;;6.53;2.83;;;;;;;14.60;53.12;101754.69;5062741;28;20438;-62
2022/10/15 05:37:54;;;;;;;7.67;3.20;;;;;;;14.52;52.92;101757.38;5060093;28;20408;-62
2022/10/15 05:40:19;;;;;;;6.97;2.83;;;;;;;14.49;53.08;101761.19;5062665;28;20380;-63
2022/10/15 05:42:50;;;;;;;6.97;2.90;;;;;;;14.40;53.05;101770.22;5062126;28;20852;-64
2022/10/15 05:45:15;;;;;;;6.78;2.95;;;;;;;14.40;52.94;101761.41;5057553;28;20996;-64
2022/10/15 05:47:41;;;;;;;5.83;3.17;;;;;;;14.46;52.67;101771.41;5062990;28;20455;-63
2022/10/15 05:50:07;;;;;;;6.50;2.87;;;;;;;14.47;52.82;101773.88;5060383;28;20376;-62
2022/10/15 05:53:15;;;;;;;5.97;2.70;;;;;;;14.49;52.87;101777.22;5073377;27;20496;-61
2022/10/15 05:55:41;;;;;;;5.90;2.70;;;;;;;14.46;52.92;101784.75;5041098;28;20544;-60
2022/10/15 05:58:06;;;;;;;8.20;3.20;;;;;;;14.41;52.70;101793.25;5040051;28;20895;-63
2022/10/15 06:00:32;;;;;;;7.57;3.25;;;;;;;14.43;52.50;101801.09;5036447;28;20396;-63
2022/10/15 06:02:58;;;;;;;7.63;3.17;;;;;;;14.38;52.51;101796.25;5024804;28;20386;-62
2022/10/15 06:05:24;;;;;;;6.57;2.60;;;;;;;14.32;52.39;101795.09;5032647;28;20383;-62
2022/10/15 06:07:49;;;;;;;5.35;2.60;;;;;;;14.38;52.55;101800.75;5029667;28;20428;-61
2022/10/15 06:10:15;;;;;;;5.87;2.63;;;;;;;14.47;52.05;101795.22;5028243;28;20813;-61
2022/10/15 06:12:41;;;;;;;5.87;2.83;;;;;;;14.60;51.89;101809.91;5031484;28;20426;-61
2022/10/15 06:15:07;;;;;;;6.22;2.88;;;;;;;14.60;51.73;101801.91;5035188;28;20377;-61
2022/10/15 06:17:59;;;;;;;5.32;2.55;;;;;;;14.62;51.33;101800.75;5079985;27;20472;-62
2022/10/15 06:20:26;;;;;;;7.53;2.90;;;;;;;14.85;51.29;101813.38;5034019;28;20468;-61
2022/10/15 06:22:57;;;;;;;5.93;2.60;;;;;;;15.16;50.40;101805.44;5035636;28;20389;-62
2022/10/15 06:25:23;;;;;;;6.57;2.50;;;;;;;15.51;49.40;101805.91;5039623;28;20382;-62
2022/10/15 06:27:48;;;;;;;4.77;2.93;;;;;;;15.68;49.30;101815.50;5041561;28;20400;-61
2022/10/15 06:30:13;;;;;;;5.93;3.00;;;;;;;15.85;48.65;101799.38;5034099;28;21481;-61
2022/10/15 06:32:39;;;;;;;4.80;2.60;;;;;;;16.03;48.25;101813.28;5038776;28;20911;-60
2022/10/15 06:35:05;;;;;;;6.77;2.13;;;;;;;16.04;48.03;101806.94;5042606;28;20381;-61
2022/10/15 06:37:30;;;;;;;5.00;2.20;;;;;;;16.11;47.81;101817.72;5038916;28;20414;-61
2022/10/15 06:39:56;;;;;;;8.30;2.67;;;;;;;16.33;47.47;101825.91;5031623;28;20770;-61
2022/10/15 06:42:21;;;;;;;8.47;2.70;;;;;;;16.54;46.92;101814.50;5034487;28;20389;-61
2022/10/15 06:44:47;;;;;;;5.93;2.30;;;;;;;16.58;46.75;101823.84;5034219;28;20465;-61
2022/10/15 06:47:12;;;;;;;5.10;2.70;;;;;;;16.47;47.06;101825.09;5036510;28;20378;-60
2022/10/15 06:49:38;;;;;;;4.97;2.40;;;;;;;16.49;47.11;101825.75;5039194;28;20424;-61
2022/10/15 06:53:16;;;;;;;6.57;2.60;;;;;;;16.54;46.68;101841.28;5076694;27;20405;-62
2022/10/15 06:57:41;;;;;;;7.78;3.20;;;;;;;16.24;47.14;101839.38;5062826;27;20924;-62
2022/10/15 07:00:06;;;;;;;5.47;2.20;;;;;;;16.48;46.91;101840.16;5026073;28;20403;-62
2022/10/15 07:02:35;;;;;;;8.27;2.80;;;;;;;16.76;46.16;101831.50;5026345;28;20461;-61
2022/10/15 07:05:00;;;;;;;7.60;2.40;;;;;;;17.07;45.53;101828.72;5018111;28;20441;-62
2022/10/15 07:07:26;;;;;;;4.53;2.33;;;;;;;17.11;45.21;101843.38;5024723;28;20974;-62
2022/10/15 07:09:54;;;;;;;4.13;1.80;;;;;;;17.04;45.10;101829.06;5025839;28;20392;-61
2022/10/15 07:12:21;;;;;;;6.07;2.30;;;;;;;17.05;44.85;101835.25;5025392;28;20406;-62
2022/10/15 07:14:47;;;;;;;8.35;2.60;;;;;;;17.07;44.18;101843.94;5025932;28;20391;-62
2022/10/15 07:17:13;;;;;;;6.03;2.22;;;;;;;16.90;44.44;101830.72;5025312;28;20426;-63
2022/10/15 07:19:39;;;;;;;5.80;2.17;;;;;;;17.15;44.29;101833.13;5023009;28;20383;-62
2022/10/15 07:22:04;;;;;;;4.03;2.10;;;;;;;17.31;43.62;101838.28;5025132;28;20386;-61
2022/10/15 07:24:30;;;;;;;5.00;2.33;;;;;;;17.52;43.80;101842.03;5022584;28;20403;-61
2022/10/15 07:26:55;;;;;;;6.20;2.50;;;;;;;17.61;43.41;101846.28;5025450;28;20418;-63
2022/10/15 07:29:21;;;;;;;4.57;2.00;;;;;;;17.53;43.01;101846.38;5025307;28;20388;-62
2022/10/15 07:32:31;;;;;;;4.13;2.20;;;;;;;17.63;42.87;101844.22;5065613;27;20397;-61
2022/10/15 07:34:57;;;;;;;4.85;2.20;;;;;;;17.68;42.64;101835.59;5038273;28;20418;-61
2022/10/15 07:37:22;;;;;;;5.33;2.37;;;;;;;17.79;42.50;101843.19;5043522;28;20444;-62
2022/10/15 07:39:48;;;;;;;3.70;2.07;;;;;;;17.63;42.47;101841.56;5040448;28;20893;-61
2022/10/15 07:42:13;;;;;;;4.47;2.20;;;;;;;17.46;42.62;101843.59;5043274;28;20390;-61
2022/10/15 07:44:39;;;;;;;4.00;2.07;;;;;;;17.31;42.92;101838.28;5042136;28;20446;-61
2022/10/15 07:47:06;;;;;;;5.90;2.20;;;;;;;17.37;42.89;101840.19;5043865;28;20465;-61
2022/10/15 07:49:32;;;;;;;6.70;2.28;;;;;;;17.47;42.95;101834.56;5043341;28;20423;-60
2022/10/15 07:51:57;;;;;;;5.20;2.33;;;;;;;17.48;42.94;101836.22;5039628;28;20420;-61
2022/10/15 07:54:23;;;;;;;4.90;2.87;;;;;;;17.47;42.67;101834.56;5026555;28;20387;-60
2022/10/15 07:56:48;;;;;;;3.80;2.40;;;;;;;17.44;42.84;101848.34;5036922;28;20379;-62
2022/10/15 07:59:14;;;;;;;4.07;2.10;;;;;;;17.47;43.42;101839.09;5026493;28;20881;-62
2022/10/15 08:01:39;;;;;;;5.40;2.60;;;;;;;17.44;42.90;101831.44;5037076;28;20389;-62
2022/10/15 08:04:04;;;;;;;4.20;2.40;;;;;;;17.44;43.11;101828.75;5026231;28;20747;-61
2022/10/15 08:08:51;;;;;;;5.13;2.50;;;;;;;17.46;43.07;101824.84;5074988;27;20405;-60
2022/10/15 08:11:16;;;;;;;4.23;2.30;;;;;;;17.51;43.11;101832.34;5026619;28;20400;-60
2022/10/15 08:13:43;;;;;;;4.57;2.67;;;;;;;17.40;43.20;101825.59;5025105;28;20387;-61
2022/10/15 08:16:11;;;;;;;6.82;2.75;;;;;;;17.41;43.23;101832.63;5022561;28;20411;-61
2022/10/15 08:18:38;;;;;;;5.30;2.40;;;;;;;17.55;43.17;101822.88;5025759;28;20761;-60
2022/10/15 08:21:05;;;;;;;3.20;2.10;;;;;;;17.52;42.75;101821.44;5017757;28;20947;-60
2022/10/15 08:23:31;;;;;;;4.38;2.20;;;;;;;17.44;43.02;101818.84;5025351;28;20462;-60
2022/10/15 08:26:00;;;;;;;4.45;2.40;;;;;;;17.44;43.10;101818.84;5027192;28;20482;-61
2022/10/15 08:28:30;;;;;;;5.82;2.28;;;;;;;17.39;43.17;101818.56;5025862;28;20411;-61
2022/10/15 08:30:59;;;;;;;6.07;2.13;;;;;;;17.29;43.59;101813.53;5020363;28;20959;-61
2022/10/15 08:34:56;;;;;;;4.57;2.33;;;;;;;17.37;43.34;101824.13;5102574;27;847307;-61
2022/10/15 08:37:22;;;;;;;6.50;2.30;;;;;;;17.34;43.69;101818.31;5146934;27;20393;-60
2022/10/15 08:39:48;;;;;;;5.63;2.10;;;;;;;17.51;43.47;101817.06;5153917;27;20391;-61
2022/10/15 08:42:19;;;;;;;8.37;2.30;;;;;;;17.69;42.75;101819.34;5147648;27;20438;-61
2022/10/15 08:45:02;;;;;;;4.63;2.10;;;;;;;17.44;43.16;101829.56;5147060;27;20938;-63
2022/10/15 08:47:33;;;;;;;4.80;2.30;;;;;;;17.46;43.36;101835.56;5152791;27;20407;-61
2022/10/15 08:50:19;;;;;;;6.18;2.33;;;;;;;17.46;43.40;101827.53;5152418;27;20383;-60
2022/10/15 08:53:24;;;;;;;6.35;2.80;;;;;;;17.61;43.42;101824.84;5057286;27;20408;-62
2022/10/15 08:55:53;;;;;;;6.38;2.45;;;;;;;17.67;43.28;101816.00;5026036;28;20409;-60
2022/10/15 08:58:55;;;;;;;3.85;2.20;;;;;;;17.77;43.06;101829.94;5030259;28;20497;-60
2022/10/15 09:01:30;;;;;;;7.20;2.70;;;;;;;17.80;42.83;101833.28;5025951;28;20424;-60
2022/10/15 09:05:46;;;;;;;6.32;2.03;;;;;;;17.60;42.67;101838.41;5056291;27;20436;-60
2022/10/15 09:08:32;;;;;;;5.40;2.10;;;;;;;17.81;42.37;101842.97;5022209;28;20457;-61
2022/10/15 09:11:11;;;;;;;4.82;2.05;;;;;;;17.80;42.26;101830.59;5023525;28;20399;-61
2022/10/15 09:13:39;;;;;;;6.68;2.03;;;;;;;17.95;41.85;101828.69;5022660;28;20457;-61
2022/10/15 09:16:18;;;;;;;5.55;2.22;;;;;;;18.02;41.44;101826.91;5024092;28;20905;-60
2022/10/15 09:18:48;;;;;;;7.85;2.13;;;;;;;18.12;41.38;101823.91;5023316;28;20403;-60
2022/10/15 09:23:45;;;;;;;4.55;1.90;;;;;;;18.17;41.01;101828.69;5065348;27;20951;-60
2022/10/15 09:26:10;;;;;;;6.45;2.10;;;;;;;18.14;41.49;101828.06;5021738;28;20403;-61
2022/10/15 09:28:50;;;;;;;6.07;1.70;;;;;;;18.28;40.97;101820.13;5024382;28;20403;-61
2022/10/15 09:31:21;;;;;;;5.18;1.90;;;;;;;18.34;40.86;101830.09;5022961;28;20379;-60
2022/10/15 09:33:50;;;;;;;6.40;1.98;;;;;;;18.25;40.65;101839.31;5023292;28;20387;-61
2022/10/15 09:36:25;;;;;;;7.80;2.10;;;;;;;18.29;40.83;101846.78;5024033;28;20393;-61
2022/10/15 09:39:12;;;;;;;6.47;2.65;;;;;;;18.24;40.59;101830.44;5021073;28;20494;-61
2022/10/15 09:44:23;;;;;;;4.47;1.83;;;;;;;18.37;40.41;101823.50;5102532;27;20894;-62
2022/10/15 09:46:50;;;;;;;5.33;1.93;;;;;;;18.38;40.32;101815.25;5083941;28;20417;-61
2022/10/15 09:49:23;;;;;;;6.13;2.10;;;;;;;18.42;39.96;101819.22;5084142;28;20382;-61
2022/10/15 09:52:06;;;;;;;4.90;1.85;;;;;;;18.34;39.58;101813.97;5084875;28;20462;-61
2022/10/15 09:55:22;;;;;;;4.45;1.80;;;;;;;18.26;39.87;101817.63;5082997;28;20810;-61
2022/10/15 09:57:52;;;;;;;3.95;1.65;;;;;;;18.35;39.76;101812.97;5083646;28;20386;-62
2022/10/15 10:00:18;;;;;;;6.45;2.05;;;;;;;18.53;39.48;101799.88;5085495;28;20385;-61
2022/10/15 10:02:44;;;;;;;6.13;2.20;;;;;;;18.54;39.85;101823.00;5085374;28;20827;-62
2022/10/15 10:05:29;;;;;;;4.60;1.87;;;;;;;18.47;39.87;101810.56;5086352;28;20880;-62
2022/10/15 10:08:23;;;;;;;5.22;1.80;;;;;;;18.54;39.83;101814.94;5085925;28;20895;-62
2022/10/15 10:10:58;;;;;;;4.18;1.70;;;;;;;18.68;39.16;101817.72;5084363;28;20481;-62
2022/10/15 10:13:27;;;;;;;6.15;1.98;;;;;;;18.53;39.05;101831.28;5081431;28;20471;-61
2022/10/15 10:15:55;;;;;;;6.50;2.20;;;;;;;18.46;39.01;101831.22;5084836;28;20469;-63
2022/10/15 10:18:24;;;;;;;4.60;1.70;;;;;;;18.44;38.99;101814.47;5079351;28;20497;-63
2022/10/15 10:21:05;;;;;;;4.25;1.75;;;;;;;18.65;38.65;101804.69;5078406;28;20382;-61
2022/10/15 10:23:36;;;;;;;6.35;2.03;;;;;;;18.65;38.38;101810.06;5082359;28;20480;-62
2022/10/15 10:26:05;;;;;;;4.53;1.87;;;;;;;18.64;37.70;101798.50;5078259;28;20382;-61
2022/10/15 10:28:41;;;;;;;4.68;1.80;;;;;;;18.76;37.68;101808.69;5079124;28;20378;-61
2022/10/15 10:31:08;;;;;;;4.50;1.70;;;;;;;18.83;37.01;101809.59;5079063;28;20410;-61
2022/10/15 10:33:49;;;;;;;4.38;1.77;;;;;;;18.85;36.90;101802.16;5080074;28;20387;-61
2022/10/15 10:36:23;;;;;;;3.25;1.60;;;;;;;18.80;36.70;101797.34;5075889;28;20383;-61
2022/10/15 10:39:01;;;;;;;3.60;1.63;;;;;;;18.92;36.57;101808.38;5076171;28;20409;-61
2022/10/15 10:42:39;;;;;;;3.72;1.60;;;;;;;18.89;36.04;101803.44;5069519;27;20406;-61
2022/10/15 10:45:22;;;;;;;3.77;1.77;;;;;;;18.83;35.87;101799.66;5026524;28;20411;-61
2022/10/15 10:47:48;;;;;;;2.80;1.70;;;;;;;18.88;35.22;101797.22;5026383;28;20774;-60
2022/10/15 10:50:26;;;;;;;3.38;1.70;;;;;;;18.89;35.24;101790.81;5026859;28;20383;-61
2022/10/15 10:52:51;;;;;;;4.35;1.60;;;;;;;18.97;35.21;101794.38;5026124;28;20391;-61
2022/10/15 10:55:25;;;;;;;5.13;2.57;;;;;;;19.02;35.19;101787.38;5026822;28;20406;-60
2022/10/15 10:57:54;;;;;;;3.38;1.65;;;;;;;19.11;34.91;101779.97;5026453;28;20387;-61
2022/10/15 11:00:34;;;;;;;4.00;1.90;;;;;;;19.13;35.47;101796.72;5026095;28;20913;-61
2022/10/15 11:03:00;;;;;;;3.70;2.00;;;;;;;19.08;35.24;101799.16;5026643;28;20395;-61
2022/10/15 11:05:28;;;;;;;11.17;2.20;;;;;;;18.95;34.67;101783.00;5026678;28;20388;-61
2022/10/15 11:08:08;;;;;;;4.10;2.23;;;;;;;19.03;34.55;101782.81;5026312;28;20387;-61
2022/10/15 11:11:00;;;;;;;3.05;1.98;;;;;;;19.09;34.97;101779.34;5015452;28;20396;-60
2022/10/15 11:13:59;;;;;;;5.63;1.80;;;;;;;19.08;35.28;101775.81;5014728;28;20427;-62
2022/10/15 11:16:47;;;;;;;3.45;1.88;;;;;;;19.02;35.50;101776.63;5026141;28;20387;-61
2022/10/15 11:19:15;;;;;;;3.92;2.08;;;;;;;19.08;35.55;101769.59;5013954;28;20389;-62
2022/10/15 11:21:58;;;;;;;6.85;2.08;;;;;;;19.23;35.39;101766.75;5023828;28;20410;-61
2022/10/15 11:24:40;;;;;;;4.22;2.33;;;;;;;19.17;35.53;101770.25;5027071;28;20499;-61
2022/10/15 11:27:20;;;;;;;5.40;2.10;;;;;;;18.95;36.04;101762.31;5016123;28;20406;-60
2022/10/15 11:30:01;;;;;;;6.70;2.45;;;;;;;19.07;36.42;101758.03;5024742;28;20897;-59
2022/10/15 11:32:41;;;;;;;3.95;2.33;;;;;;;19.23;36.38;101748.78;5023403;28;20454;-60
2022/10/15 11:35:10;;;;;;;4.88;2.67;;;;;;;19.15;36.15;101750.81;5019953;28;20396;-59
2022/10/15 11:39:41;;;;;;;5.47;2.60;;;;;;;19.08;36.32;101740.03;5080499;27;20405;-61
2022/10/15 11:42:07;;;;;;;7.70;2.90;;;;;;;19.17;36.38;101738.84;5037243;28;20399;-60
2022/10/15 11:45:01;;;;;;;5.90;3.10;;;;;;;19.13;36.18;101742.97;5039498;28;20378;-60
2022/10/15 11:47:30;;;;;;;3.72;2.65;;;;;;;19.08;36.19;101740.88;5026780;28;20380;-63
2022/10/15 11:50:20;;;;;;;5.60;2.83;;;;;;;19.05;36.05;101748.50;5042301;28;20539;-61
2022/10/15 11:53:10;;;;;;;6.38;2.50;;;;;;;19.10;35.89;101736.16;5040194;28;20373;-62
2022/10/15 11:55:49;;;;;;;8.93;3.30;;;;;;;19.17;36.21;101727.25;5039816;28;20428;-62
2022/10/15 11:58:27;;;;;;;10.45;3.10;;;;;;;19.21;35.95;101741.94;5040013;28;20483;-61
2022/10/15 12:02:25;;;;;;;6.63;2.97;;;;;;;19.18;36.16;101726.25;5063930;27;20946;-61
2022/10/15 12:04:55;;;;;;;5.40;3.20;;;;;;;19.12;35.83;101716.28;5025747;28;20410;-61
2022/10/15 12:07:39;;;;;;;5.25;2.90;;;;;;;19.10;35.88;101695.84;5023657;28;20395;-62
2022/10/15 12:10:22;;;;;;;7.77;3.10;;;;;;;19.24;35.95;101707.41;5024122;28;20959;-62
2022/10/15 12:12:57;;;;;;;5.38;3.13;;;;;;;19.19;35.98;101704.50;5013872;28;20383;-62
2022/10/15 12:15:41;;;;;;;5.13;2.90;;;;;;;19.21;35.98;101709.69;5023606;28;20385;-61
2022/10/15 12:18:30;;;;;;;3.75;2.60;;;;;;;19.25;35.79;101697.53;5019168;28;20401;-61
2022/10/15 12:20:57;;;;;;;5.55;2.83;;;;;;;19.30;35.73;101700.41;5024470;28;20884;-62
2022/10/15 12:25:47;;;;;;;6.07;3.00;;;;;;;19.14;35.84;101695.41;5130042;27;20405;-61
2022/10/15 12:30:59;;;;;;;4.82;2.92;;;;;;;19.12;35.44;101705.53;5084245;27;20402;-61
2022/10/15 12:33:31;;;;;;;8.05;3.10;;;;;;;19.19;35.38;101706.38;5025477;28;20549;-61
2022/10/15 12:36:04;;;;;;;5.82;3.17;;;;;;;19.25;35.37;101700.22;5026014;28;20441;-61
2022/10/15 12:38:35;;;;;;;5.50;3.10;;;;;;;19.34;35.43;101688.22;5026039;28;20544;-61
2022/10/15 12:42:33;;;;;;;5.35;3.35;;;;;;;19.34;35.12;101693.59;5073722;27;20770;-61
2022/10/15 12:45:02;;;;;;;5.63;3.20;;;;;;;19.41;35.13;101693.59;5026837;28;20602;-61
2022/10/15 12:47:47;;;;;;;6.57;3.47;;;;;;;19.32;35.21;101695.69;5026939;28;20473;-61
2022/10/15 12:51:37;;;;;;;6.53;3.80;;;;;;;19.39;35.25;101680.38;5102029;27;845591;-61
2022/10/15 12:54:41;;;;;;;7.20;3.90;;;;;;;19.44;35.26;101672.50;5148554;27;20857;-61